Spencer, IA

7:18 AM CDT on August 21, 2014 (GMT -0500)
Spencer Municipal | Change Station
CLOSE
Current Station
Airport
Location: Spencer,
Elevation: 1339 ft
Nearby Weather Stations

Elev 1339 ft 43.17 °N, 95.20 °W | Updated 25 minutes ago

Mostly Cloudy
Mostly Cloudy
75 °F
Feels Like 75 °F
N
8
Wind Variable Wind from SSW

Today
High -- | Low -- °F
--% Chance of Precip.
Yesterday
High -- | Low -- °F
Precip. -- in
6:33 AM 8:14 PM
Waning Crescent, 14% visible
Pressure 29.76 in
Visibility 10.0 miles
Clouds Mostly Cloudy 7000 ft
Dew Point 69 °F
Humidity 82%
Rainfall 0.01 in
Snow Depth Not available.
UV 0 out of 12
Pollen 4.20 out of 12
Air Quality Not available.
Flu Activity Not available.
METAR KSPW 211153Z AUTO 21007KT 10SM BKN070 24/21 A2978 RMK AO2 SLP076 60001 70008 T02390206 10244 20222 53031

More Conditions Fewer Conditions

Pressure 29.76 in
Visibility 10.0 miles
Clouds Mostly Cloudy 7000 ft
Dew Point 69 °F
Humidity 82%
Rainfall 0.01 in
Snow Depth Not available.
UV 0 out of 12
Pollen 4.20 out of 12
Air Quality Not available.
Flu Activity Not available.
METAR KSPW 211153Z AUTO 21007KT 10SM BKN070 24/21 A2978 RMK AO2 SLP076 60001 70008 T02390206 10244 20222 53031

More Conditions Fewer Conditions

10-Day Weather Forecast

Almanac

Astronomy

Aug. 21, 2014 Rise Set
Actual Time 6:33 AM CDT 8:14 PM CDT
Civil Twilight 6:02 AM CDT 8:44 PM CDT
Nautical Twilight 5:26 AM CDT 9:20 PM CDT
Astronomical Twilight 4:46 AM CDT 9:59 PM CDT
Moon 3:01 AM CDT 5:45 PM CDT
Length of Visible Light 14h 41m
Length of Day
13h 41m
Tomorrow will be 2m 42s shorter.
Waning Crescent, 14% of the Moon is Illuminated
Today
Waning Crescent
Aug 25
New
Sep 2
First Quarter
Sep 8
Full
Sep 15
Last Quarter

Today's Extremes

State Highs State Lows

Community

WunderPhotos

Upload Photos

1,745,885 photos uploaded!

WunderBlogs® & News

Nearby

Snow Depth

Station Depth Elevation
No new snow has been reported.

Earthquake Activity

City Distance Mag. Time & Date
No recent earthquake activity has been reported nearby.
Minimum magnitude displayed is 2.5.

Coastal Water Temperatures

Place Temperature
No Stations Reporting

Nearby Weather Stations